Time;durP1;ratioP1;P1;durP2;ratioP2;P2;SDS_P1;SDS_P2;PMS_P1;PMS_P2;Temp;Humidity;BMP_temperature;BMP_pressure;BME280_temperature;BME280_humidity;BME280_pressure;Samples;Min_cycle;Max_cycle;Signal;HPM_P1;HPM_P2
2023/04/02 00:01:25;;;;;;;5.70;1.63;;;2.90;82.60;;;;;;5052841;28;20405;-46
2023/04/02 00:04:07;;;;;;;8.60;1.85;;;2.90;83.00;;;;;;5048083;28;20116;-44
2023/04/02 00:06:55;;;;;;;8.77;1.98;;;2.90;83.10;;;;;;5052838;28;20056;-44
2023/04/02 00:09:31;;;;;;;5.22;2.20;;;2.80;83.00;;;;;;5053528;28;20028;-45
2023/04/02 00:12:14;;;;;;;6.03;1.60;;;2.80;82.50;;;;;;5053734;28;20025;-47
2023/04/02 00:14:47;;;;;;;8.23;1.70;;;2.80;82.40;;;;;;5052715;28;20039;-48
2023/04/02 00:17:16;;;;;;;5.35;1.65;;;2.80;82.60;;;;;;5035951;28;20032;-45
2023/04/02 00:20:05;;;;;;;6.53;1.88;;;2.80;82.90;;;;;;5052961;28;20025;-43
2023/04/02 00:22:33;;;;;;;8.05;2.25;;;2.70;83.10;;;;;;5055060;28;20041;-44
2023/04/02 00:25:06;;;;;;;7.78;2.00;;;2.70;83.30;;;;;;5052864;28;20037;-48
2023/04/02 00:27:35;;;;;;;6.97;2.70;;;2.70;83.30;;;;;;5039223;28;20036;-47
2023/04/02 00:30:03;;;;;;;10.50;1.77;;;2.80;83.00;;;;;;5062773;28;20043;-48
2023/04/02 00:32:35;;;;;;;3.92;1.20;;;2.80;83.00;;;;;;5062502;28;20021;-44
2023/04/02 00:35:10;;;;;;;6.78;2.05;;;2.70;83.20;;;;;;5058381;28;20124;-47
2023/04/02 00:37:41;;;;;;;7.82;1.80;;;2.70;83.20;;;;;;5062202;28;20036;-43
2023/04/02 00:40:24;;;;;;;7.72;2.75;;;2.70;82.90;;;;;;5061159;28;20028;-47
2023/04/02 00:42:55;;;;;;;5.45;1.60;;;2.70;82.40;;;;;;5062109;28;20031;-44
2023/04/02 00:45:40;;;;;;;8.43;2.13;;;2.80;82.00;;;;;;5044744;28;20045;-44
2023/04/02 00:48:20;;;;;;;6.65;1.50;;;2.80;82.40;;;;;;5061249;28;20025;-43
2023/04/02 00:50:49;;;;;;;9.13;1.77;;;2.80;82.60;;;;;;5063060;28;20109;-43
2023/04/02 00:53:26;;;;;;;6.03;1.38;;;2.70;82.30;;;;;;5046503;28;20086;-43
2023/04/02 00:55:52;;;;;;;8.32;1.77;;;2.70;82.10;;;;;;5044567;28;20024;-46
2023/04/02 00:58:35;;;;;;;4.47;2.22;;;2.80;82.50;;;;;;5061235;28;20029;-45
2023/04/02 01:01:03;;;;;;;5.75;1.73;;;2.70;81.80;;;;;;5071734;28;20028;-44
2023/04/02 01:03:58;;;;;;;8.20;2.13;;;2.70;81.70;;;;;;5071734;28;20122;-43
2023/04/02 01:06:52;;;;;;;3.55;1.85;;;2.70;81.90;;;;;;5071044;28;20060;-45
2023/04/02 01:09:57;;;;;;;3.30;1.10;;;2.70;81.70;;;;;;5067191;28;20059;-48
2023/04/02 01:12:58;;;;;;;4.03;1.45;;;2.70;81.50;;;;;;5061040;28;20021;-48
2023/04/02 01:15:46;;;;;;;5.10;1.38;;;2.70;81.20;;;;;;5061003;28;20098;-44
2023/04/02 01:18:34;;;;;;;5.45;1.52;;;2.70;81.00;;;;;;5047458;28;20033;-44
2023/04/02 01:21:27;;;;;;;4.75;1.50;;;2.60;80.90;;;;;;5062862;28;20021;-45
2023/04/02 01:24:17;;;;;;;4.47;1.50;;;2.60;80.70;;;;;;5059795;28;20395;-46
2023/04/02 01:27:21;;;;;;;6.15;1.45;;;2.70;80.90;;;;;;5069934;28;20087;-46
2023/04/02 01:29:58;;;;;;;5.43;1.52;;;2.70;80.90;;;;;;5064946;28;20083;-43
2023/04/02 01:32:28;;;;;;;5.20;1.20;;;2.60;81.00;;;;;;5049175;28;20048;-44
2023/04/02 01:34:57;;;;;;;2.50;1.20;;;2.60;81.00;;;;;;5052129;28;20093;-44
2023/04/02 01:37:48;;;;;;;8.70;2.05;;;2.60;81.50;;;;;;5068333;28;20032;-44
2023/04/02 01:40:26;;;;;;;6.07;1.55;;;2.60;81.40;;;;;;5059566;28;20047;-48
2023/04/02 01:43:16;;;;;;;4.60;1.42;;;2.60;80.80;;;;;;5052047;28;20075;-44
2023/04/02 01:45:48;;;;;;;3.15;1.02;;;2.70;81.00;;;;;;5050964;28;20060;-45
2023/04/02 01:48:19;;;;;;;5.00;1.42;;;2.60;81.30;;;;;;5052569;28;20052;-44
2023/04/02 01:50:50;;;;;;;5.45;1.63;;;2.60;81.50;;;;;;5035010;28;20025;-47
2023/04/02 01:53:24;;;;;;;4.22;1.20;;;2.60;81.10;;;;;;5052129;28;20458;-45
2023/04/02 01:55:55;;;;;;;6.47;1.52;;;2.60;81.00;;;;;;5050173;28;20044;-44
2023/04/02 01:58:26;;;;;;;4.85;1.52;;;2.70;81.10;;;;;;5051612;28;20029;-46
2023/04/02 02:01:00;;;;;;;5.47;1.48;;;2.70;81.10;;;;;;5038618;28;20116;-44
2023/04/02 02:03:30;;;;;;;8.77;1.70;;;2.70;81.20;;;;;;5055978;28;20103;-44
2023/04/02 02:05:58;;;;;;;7.97;1.27;;;2.60;81.50;;;;;;5055602;28;20143;-43
2023/04/02 02:08:37;;;;;;;11.18;2.58;;;2.60;81.70;;;;;;5054871;28;20120;-48
2023/04/02 02:11:11;;;;;;;4.93;1.27;;;2.60;81.60;;;;;;5055843;28;20017;-44
2023/04/02 02:13:38;;;;;;;5.70;1.38;;;2.70;81.50;;;;;;5054667;28;20043;-46
2023/04/02 02:16:11;;;;;;;5.93;1.60;;;2.70;81.20;;;;;;5055375;28;20059;-44
2023/04/02 02:18:39;;;;;;;5.72;1.30;;;2.70;81.30;;;;;;5054888;28;20417;-45
2023/04/02 02:21:09;;;;;;;6.00;1.40;;;2.70;81.50;;;;;;5054042;28;20457;-44
2023/04/02 02:23:34;;;;;;;8.45;1.63;;;2.60;81.60;;;;;;5054177;28;20500;-45
2023/04/02 02:26:08;;;;;;;7.25;1.45;;;2.60;81.40;;;;;;5054679;28;20033;-44
2023/04/02 02:28:52;;;;;;;4.68;1.55;;;2.60;81.30;;;;;;5054836;28;20045;-43
2023/04/02 02:31:29;;;;;;;5.07;1.58;;;2.70;81.10;;;;;;5054485;28;20021;-46
2023/04/02 02:34:07;;;;;;;2.80;1.15;;;2.70;81.30;;;;;;5038216;28;20086;-45
2023/04/02 02:36:55;;;;;;;8.52;1.58;;;2.60;81.60;;;;;;5060204;28;20024;-48
2023/04/02 02:39:43;;;;;;;5.22;1.50;;;2.60;81.80;;;;;;5059775;28;20162;-44
2023/04/02 02:42:18;;;;;;;6.60;1.40;;;2.60;81.70;;;;;;5058907;28;20417;-44
2023/04/02 02:44:52;;;;;;;6.65;1.33;;;2.70;81.60;;;;;;5075463;28;20347;-45
2023/04/02 02:47:30;;;;;;;5.05;1.95;;;2.70;81.40;;;;;;5051467;28;20029;-44
2023/04/02 02:50:02;;;;;;;7.72;1.85;;;2.60;81.30;;;;;;5054255;28;20033;-45
2023/04/02 02:52:35;;;;;;;6.78;1.60;;;2.60;81.50;;;;;;5037749;28;20143;-43
2023/04/02 02:55:17;;;;;;;4.50;1.80;;;2.50;81.90;;;;;;5054969;28;20025;-45
2023/04/02 02:57:59;;;;;;;2.65;1.08;;;2.60;81.80;;;;;;5055128;28;20017;-45
2023/04/02 03:00:27;;;;;;;4.70;1.30;;;2.50;81.50;;;;;;5054808;28;20374;-47
2023/04/02 03:02:55;;;;;;;7.18;2.50;;;2.60;81.30;;;;;;5065647;28;20640;-44
2023/04/02 03:05:26;;;;;;;4.47;1.15;;;2.60;81.30;;;;;;5046524;28;20040;-44
2023/04/02 03:07:56;;;;;;;4.68;1.23;;;2.50;81.30;;;;;;5020597;28;20045;-46
2023/04/02 03:10:55;;;;;;;7.10;1.40;;;2.60;80.80;;;;;;5068814;28;20032;-48
2023/04/02 03:13:51;;;;;;;5.55;1.13;;;2.70;80.60;;;;;;5073942;28;20028;-45
2023/04/02 03:16:42;;;;;;;5.20;1.08;;;2.60;80.60;;;;;;5056718;28;20037;-45
2023/04/02 03:19:30;;;;;;;3.95;1.13;;;2.70;80.70;;;;;;5053774;28;20370;-49
2023/04/02 03:22:14;;;;;;;7.45;1.25;;;2.60;81.00;;;;;;5054458;28;20021;-49
2023/04/02 03:25:02;;;;;;;6.55;1.58;;;2.50;81.10;;;;;;5061388;28;20438;-43
2023/04/02 03:27:33;;;;;;;4.30;1.10;;;2.60;80.40;;;;;;5074431;28;20029;-47
2023/04/02 03:30:39;;;;;;;3.90;1.35;;;2.60;80.30;;;;;;5073416;28;20024;-45
2023/04/02 03:33:27;;;;;;;5.22;1.23;;;2.60;80.60;;;;;;5068070;28;20096;-43
2023/04/02 03:36:02;;;;;;;6.70;1.60;;;2.60;80.70;;;;;;5054064;28;20025;-43
2023/04/02 03:38:51;;;;;;;2.90;1.10;;;2.60;80.50;;;;;;5054166;28;20050;-46
2023/04/02 03:41:49;;;;;;;6.60;1.13;;;2.60;80.50;;;;;;5057321;28;20461;-44
2023/04/02 03:44:39;;;;;;;3.03;1.00;;;2.60;80.70;;;;;;5074385;28;20042;-43
2023/04/02 03:47:35;;;;;;;4.78;1.00;;;2.60;80.50;;;;;;5073745;28;20463;-46
2023/04/02 03:50:28;;;;;;;3.90;1.00;;;2.60;80.60;;;;;;5060563;28;20039;-44
2023/04/02 03:52:56;;;;;;;5.95;1.10;;;2.60;81.00;;;;;;5053812;28;20116;-44
2023/04/02 03:55:35;;;;;;;4.88;1.15;;;2.60;81.00;;;;;;5053019;28;20036;-43
2023/04/02 03:58:33;;;;;;;7.82;3.28;;;2.60;81.20;;;;;;5052795;28;20128;-44
2023/04/02 04:01:27;;;;;;;5.18;0.93;;;2.60;81.10;;;;;;5053675;28;20796;-44
2023/04/02 04:03:56;;;;;;;2.85;0.65;;;2.60;81.20;;;;;;5060381;28;20033;-47
2023/04/02 04:06:33;;;;;;;4.40;1.07;;;2.60;81.20;;;;;;5052412;28;20573;-44
2023/04/02 04:09:32;;;;;;;5.80;0.77;;;2.60;81.00;;;;;;5053443;28;20259;-45
2023/04/02 04:12:20;;;;;;;4.20;1.00;;;2.60;81.10;;;;;;5060417;28;20059;-45
2023/04/02 04:15:11;;;;;;;5.25;1.02;;;2.60;81.10;;;;;;5037606;28;20045;-43
2023/04/02 04:18:01;;;;;;;3.83;0.70;;;2.60;81.40;;;;;;5053330;28;20094;-44
2023/04/02 04:20:55;;;;;;;3.58;1.10;;;2.60;81.40;;;;;;5054244;28;20041;-44
2023/04/02 04:23:50;;;;;;;4.60;1.33;;;2.60;81.40;;;;;;5025731;28;20029;-46
2023/04/02 04:26:42;;;;;;;3.90;1.55;;;2.60;81.50;;;;;;5052708;28;20047;-47
2023/04/02 04:29:16;;;;;;;5.05;2.17;;;2.60;81.60;;;;;;5053338;28;20044;-43
2023/04/02 04:31:48;;;;;;;4.28;1.20;;;2.70;82.00;;;;;;5061386;28;20028;-47
2023/04/02 04:34:45;;;;;;;5.03;1.20;;;2.70;81.80;;;;;;5071965;28;20111;-45
2023/04/02 04:37:38;;;;;;;3.75;0.88;;;2.70;82.00;;;;;;5055688;28;20043;-44
2023/04/02 04:40:27;;;;;;;4.57;1.17;;;2.70;82.00;;;;;;5068896;28;20036;-43
2023/04/02 04:42:59;;;;;;;4.70;1.27;;;2.60;82.20;;;;;;5053792;28;20505;-45
2023/04/02 04:45:49;;;;;;;12.57;1.33;;;2.70;82.40;;;;;;5052775;28;20051;-44
2023/04/02 04:48:41;;;;;;;2.65;1.27;;;2.70;82.10;;;;;;5052643;28;20021;-45
2023/04/02 04:51:42;;;;;;;2.38;0.80;;;2.60;82.30;;;;;;5070529;28;20056;-44
2023/04/02 04:54:17;;;;;;;4.93;1.02;;;2.70;82.20;;;;;;5064270;28;20475;-50
2023/04/02 04:56:54;;;;;;;5.45;1.10;;;2.60;82.40;;;;;;5062393;28;20027;-43
2023/04/02 04:59:34;;;;;;;3.80;0.82;;;2.60;82.60;;;;;;5052300;28;20029;-44
2023/04/02 05:02:10;;;;;;;2.67;0.93;;;2.60;82.50;;;;;;5065277;28;20111;-47
2023/04/02 05:04:55;;;;;;;2.92;0.85;;;2.60;82.40;;;;;;5068066;28;20521;-46
2023/04/02 05:07:31;;;;;;;5.80;1.20;;;2.60;82.50;;;;;;5051354;28;20139;-46
2023/04/02 05:10:12;;;;;;;8.27;1.40;;;2.50;82.60;;;;;;5035845;28;20040;-45
2023/04/02 05:13:12;;;;;;;4.35;1.10;;;2.60;83.00;;;;;;5052800;28;20035;-44
2023/04/02 05:15:47;;;;;;;3.08;1.15;;;2.60;83.00;;;;;;5051600;28;20021;-49
2023/04/02 05:18:34;;;;;;;4.32;1.10;;;2.60;83.00;;;;;;5051219;28;20041;-47
2023/04/02 05:21:24;;;;;;;5.25;1.35;;;2.60;83.00;;;;;;5052376;28;20413;-44
2023/04/02 05:24:28;;;;;;;3.33;1.15;;;2.60;83.00;;;;;;5052049;28;20124;-45
2023/04/02 05:27:06;;;;;;;3.17;0.73;;;2.60;82.90;;;;;;5048468;28;20047;-44
2023/04/02 05:29:42;;;;;;;2.53;0.85;;;2.60;82.90;;;;;;5051773;28;20060;-48
2023/04/02 05:32:27;;;;;;;3.78;1.00;;;2.70;83.00;;;;;;5067660;28;20129;-44
2023/04/02 05:34:57;;;;;;;4.90;0.90;;;2.70;82.70;;;;;;5054453;28;20048;-49
2023/04/02 05:37:30;;;;;;;3.80;0.93;;;2.70;82.50;;;;;;5074037;28;20128;-46
2023/04/02 05:40:05;;;;;;;2.63;0.90;;;2.80;82.40;;;;;;5070985;28;20029;-46
2023/04/02 05:42:36;;;;;;;2.83;0.63;;;2.80;81.90;;;;;;5038667;28;20045;-48
2023/04/02 05:45:38;;;;;;;2.60;1.00;;;2.80;81.90;;;;;;5055464;28;20033;-43
2023/04/02 05:48:18;;;;;;;3.53;1.13;;;2.90;82.00;;;;;;5023756;28;20036;-45
2023/04/02 05:50:51;;;;;;;5.32;1.00;;;2.80;82.30;;;;;;5048201;28;20070;-44
2023/04/02 05:53:25;;;;;;;3.88;0.95;;;2.80;82.50;;;;;;5056215;28;20511;-45
2023/04/02 05:56:12;;;;;;;6.28;2.72;;;2.90;82.30;;;;;;5064487;28;20058;-46
2023/04/02 05:58:59;;;;;;;1.85;0.70;;;2.90;81.70;;;;;;5075297;28;20029;-46
2023/04/02 06:01:44;;;;;;;2.75;1.00;;;2.90;81.40;;;;;;5043818;28;20123;-44
2023/04/02 06:04:35;;;;;;;7.15;1.48;;;3.00;81.70;;;;;;5059631;28;20116;-44
2023/04/02 06:07:12;;;;;;;2.60;1.23;;;3.00;81.60;;;;;;5055362;28;20482;-46
2023/04/02 06:09:53;;;;;;;5.85;1.20;;;3.00;81.70;;;;;;5062425;28;20036;-44
2023/04/02 06:12:37;;;;;;;1.52;0.80;;;3.00;81.50;;;;;;5075819;28;20097;-47
2023/04/02 06:15:11;;;;;;;3.60;0.80;;;3.00;81.20;;;;;;5068809;28;20017;-45
2023/04/02 06:18:20;;;;;;;5.85;1.80;;;3.10;81.30;;;;;;5059498;28;20585;-44
2023/04/02 06:20:48;;;;;;;2.92;0.73;;;3.10;81.00;;;;;;5050705;28;20523;-46
2023/04/02 06:23:45;;;;;;;2.47;0.70;;;3.20;80.40;;;;;;5053182;28;20037;-44
2023/04/02 06:26:43;;;;;;;4.80;1.05;;;3.20;80.60;;;;;;5055649;28;20419;-43
2023/04/02 06:29:30;;;;;;;5.55;1.65;;;3.30;80.40;;;;;;5065382;28;20029;-49
2023/04/02 06:32:00;;;;;;;2.53;0.70;;;3.40;80.60;;;;;;5072583;28;20481;-43
2023/04/02 06:34:32;;;;;;;4.82;1.65;;;3.40;79.80;;;;;;5063197;28;20041;-46
2023/04/02 06:37:10;;;;;;;3.50;0.90;;;3.50;79.70;;;;;;5058879;28;20734;-45
2023/04/02 06:39:35;;;;;;;4.68;0.95;;;3.50;79.70;;;;;;5064994;28;20028;-44
2023/04/02 06:42:21;;;;;;;3.85;0.77;;;3.60;79.70;;;;;;5072261;28;20043;-45
2023/04/02 06:44:47;;;;;;;4.30;0.82;;;3.60;79.40;;;;;;5043392;28;20032;-45
2023/04/02 06:47:37;;;;;;;6.50;1.02;;;3.70;79.20;;;;;;5065137;28;20044;-46
2023/04/02 06:50:25;;;;;;;3.95;0.65;;;3.80;79.10;;;;;;5050747;28;20056;-45
2023/04/02 06:52:58;;;;;;;1.75;0.70;;;3.90;78.60;;;;;;5065311;28;20017;-45
2023/04/02 06:56:02;;;;;;;3.03;0.80;;;3.90;77.70;;;;;;5062343;28;20036;-45
2023/04/02 06:58:30;;;;;;;3.08;0.73;;;4.20;77.10;;;;;;5053963;28;20040;-44
2023/04/02 07:01:04;;;;;;;2.43;0.80;;;4.20;77.00;;;;;;5061122;28;20413;-47
2023/04/02 07:03:32;;;;;;;6.53;0.80;;;4.30;76.90;;;;;;5058149;28;20403;-46
2023/04/02 07:06:04;;;;;;;3.37;0.70;;;4.30;76.60;;;;;;5059893;28;20087;-44
2023/04/02 07:08:31;;;;;;;1.92;0.98;;;4.40;76.30;;;;;;5053802;28;20029;-45
2023/04/02 07:10:59;;;;;;;4.03;0.93;;;4.40;76.10;;;;;;5057978;28;20021;-45
2023/04/02 07:13:26;;;;;;;4.25;0.80;;;4.50;76.00;;;;;;5060803;28;20081;-44
2023/04/02 07:15:53;;;;;;;4.40;1.25;;;4.60;76.40;;;;;;5061603;28;20025;-45
2023/04/02 07:18:41;;;;;;;5.15;0.90;;;4.70;76.20;;;;;;5062617;28;20095;-46
2023/04/02 07:21:07;;;;;;;1.85;0.70;;;4.80;76.70;;;;;;5067457;28;20040;-45
2023/04/02 07:23:34;;;;;;;1.98;0.68;;;4.90;75.60;;;;;;5070271;28;20101;-44
2023/04/02 07:26:02;;;;;;;4.25;1.67;;;5.00;75.60;;;;;;5061659;28;20740;-45
2023/04/02 07:28:29;;;;;;;2.55;0.68;;;5.10;75.90;;;;;;5061212;28;20357;-48
2023/04/02 07:30:56;;;;;;;3.67;0.93;;;5.10;75.20;;;;;;5064868;28;20346;-46
2023/04/02 07:33:32;;;;;;;3.30;0.95;;;5.20;74.90;;;;;;5064276;28;20056;-45
2023/04/02 07:35:59;;;;;;;2.30;0.88;;;5.30;74.50;;;;;;5047833;28;20422;-46
2023/04/02 07:38:26;;;;;;;3.72;0.93;;;5.40;74.30;;;;;;5063328;28;20044;-46
2023/04/02 07:40:53;;;;;;;1.92;0.88;;;5.60;73.30;;;;;;5069622;28;20028;-46
2023/04/02 07:43:23;;;;;;;3.10;1.25;;;5.70;72.50;;;;;;5058196;28;20068;-44
2023/04/02 07:45:50;;;;;;;;;;;6.00;72.70;;;;;;5063209;28;20044;-44
2023/04/02 07:48:18;;;;;;;3.47;0.70;;;6.30;71.20;;;;;;5061569;28;19904;-48
2023/04/02 07:50:45;;;;;;;3.28;0.82;;;6.60;69.90;;;;;;5069698;28;20028;-46
2023/04/02 07:53:37;;;;;;;2.95;1.08;;;6.90;68.20;;;;;;5060554;28;20036;-48
2023/04/02 07:56:07;;;;;;;4.80;1.02;;;7.00;68.00;;;;;;5060816;28;20048;-52
2023/04/02 07:58:33;;;;;;;3.30;0.80;;;7.40;68.30;;;;;;5051961;28;20040;-45
2023/04/02 08:01:03;;;;;;;3.17;0.70;;;7.60;66.40;;;;;;5060602;28;20025;-50
2023/04/02 08:03:30;;;;;;;2.83;0.93;;;7.60;64.90;;;;;;5056535;28;20425;-48
2023/04/02 08:05:57;;;;;;;1.83;0.50;;;7.80;64.70;;;;;;5066510;28;20151;-44
2023/04/02 08:08:25;;;;;;;2.47;0.73;;;8.00;65.50;;;;;;5072898;28;20095;-49
2023/04/02 08:10:54;;;;;;;4.00;1.02;;;8.30;63.00;;;;;;5055131;28;20045;-47
2023/04/02 08:13:20;;;;;;;3.55;0.70;;;8.20;63.70;;;;;;5051537;28;20044;-47
2023/04/02 08:15:50;;;;;;;1.10;0.50;;;8.20;62.60;;;;;;5056465;28;20052;-47
2023/04/02 08:18:22;;;;;;;3.03;0.52;;;8.40;63.90;;;;;;5052853;28;20052;-46
2023/04/02 08:20:49;;;;;;;3.10;0.70;;;8.70;62.50;;;;;;5069240;28;20056;-47
2023/04/02 08:23:16;;;;;;;2.85;0.60;;;8.60;62.40;;;;;;5065975;28;20414;-46
2023/04/02 08:25:45;;;;;;;1.98;0.63;;;8.50;62.90;;;;;;5058113;28;20060;-48
2023/04/02 08:28:12;;;;;;;4.05;0.80;;;8.20;63.00;;;;;;5067723;28;20042;-44
2023/04/02 08:30:39;;;;;;;3.13;1.10;;;8.50;62.90;;;;;;5065751;28;20044;-45
2023/04/02 08:33:08;;;;;;;3.45;0.80;;;8.40;61.50;;;;;;5051307;28;20099;-46
2023/04/02 08:35:36;;;;;;;5.97;0.88;;;8.40;63.10;;;;;;5051266;28;20466;-47
2023/04/02 08:38:03;;;;;;;7.47;0.88;;;8.10;62.80;;;;;;5052696;28;20039;-46
2023/04/02 08:40:47;;;;;;;4.15;0.82;;;8.20;63.30;;;;;;5061189;28;20051;-48
2023/04/02 08:43:36;;;;;;;2.15;0.60;;;8.50;62.80;;;;;;5070835;28;20082;-44
2023/04/02 08:46:31;;;;;;;3.30;0.80;;;8.40;62.70;;;;;;5064272;28;20036;-46
2023/04/02 08:49:02;;;;;;;3.67;0.82;;;8.60;62.90;;;;;;5054536;28;20391;-45
2023/04/02 08:51:45;;;;;;;3.85;0.70;;;8.70;62.50;;;;;;5052521;28;20059;-46
2023/04/02 08:54:30;;;;;;;2.05;0.60;;;9.00;62.20;;;;;;5050147;28;20677;-48
2023/04/02 08:57:26;;;;;;;3.38;1.30;;;8.90;62.30;;;;;;5051175;28;20419;-46
2023/04/02 09:00:40;;;;;;;2.90;0.60;;;9.00;61.60;;;;;;5051346;28;20454;-47
2023/04/02 09:03:46;;;;;;;3.70;0.70;;;9.40;61.60;;;;;;5060883;28;20089;-47
2023/04/02 09:06:16;;;;;;;5.13;1.00;;;9.10;60.80;;;;;;5012432;28;20114;-46
2023/04/02 09:08:46;;;;;;;5.68;1.00;;;9.10;61.20;;;;;;5028472;28;20025;-47
2023/04/02 09:11:40;;;;;;;4.28;0.63;;;8.90;60.80;;;;;;5001756;28;20367;-49
2023/04/02 09:14:19;;;;;;;4.38;1.00;;;8.90;62.00;;;;;;4994360;28;20034;-45
2023/04/02 09:16:55;;;;;;;9.03;0.93;;;8.80;62.60;;;;;;5017966;28;20367;-46
2023/04/02 09:19:34;;;;;;;3.03;0.70;;;8.90;61.70;;;;;;5011701;28;20354;-46
2023/04/02 09:22:07;;;;;;;4.68;1.05;;;9.00;62.10;;;;;;5002189;28;20161;-46
2023/04/02 09:24:36;;;;;;;3.53;1.10;;;9.00;60.70;;;;;;5009168;28;20034;-47
2023/04/02 09:27:17;;;;;;;2.17;0.82;;;9.10;62.00;;;;;;4993247;28;20026;-45
2023/04/02 09:29:48;;;;;;;6.05;1.38;;;9.20;61.40;;;;;;5021578;28;20099;-47
2023/04/02 09:32:52;;;;;;;3.42;0.70;;;9.10;60.70;;;;;;5013043;28;20106;-47
2023/04/02 09:35:26;;;;;;;4.25;1.05;;;9.00;61.70;;;;;;5019503;28;20034;-47
2023/04/02 09:38:38;;;;;;;5.20;1.13;;;8.90;62.80;;;;;;5045586;28;20560;-46
2023/04/02 09:41:37;;;;;;;2.05;0.70;;;8.80;63.40;;;;;;5052583;28;20438;-49
2023/04/02 09:44:26;;;;;;;5.47;0.90;;;8.60;63.20;;;;;;5083456;28;20037;-49
2023/04/02 09:47:02;;;;;;;2.53;0.73;;;8.90;63.40;;;;;;5055401;28;20044;-49
2023/04/02 09:49:35;;;;;;;5.50;1.25;;;8.90;62.10;;;;;;5063394;28;20024;-51
2023/04/02 09:52:30;;;;;;;3.97;0.75;;;8.70;64.60;;;;;;5062008;28;20012;-47
2023/04/02 09:55:25;;;;;;;3.20;0.82;;;8.80;63.40;;;;;;5056298;28;20090;-48
2023/04/02 09:58:10;;;;;;;3.03;0.90;;;8.90;63.50;;;;;;5061674;28;20130;-48
2023/04/02 10:00:36;;;;;;;2.90;0.95;;;9.10;62.50;;;;;;5052537;28;20072;-48
2023/04/02 10:03:25;;;;;;;3.40;0.88;;;9.30;62.20;;;;;;5040424;28;20466;-50
2023/04/02 10:06:15;;;;;;;2.58;0.68;;;9.40;63.20;;;;;;5049821;28;20037;-48
2023/04/02 10:08:43;;;;;;;2.78;0.80;;;9.30;61.40;;;;;;5056740;28;20401;-46
2023/04/02 10:11:34;;;;;;;3.97;1.10;;;9.20;62.70;;;;;;5023712;28;20033;-47
2023/04/02 10:14:18;;;;;;;6.50;0.73;;;9.30;60.90;;;;;;5059958;28;20795;-47
2023/04/02 10:16:52;;;;;;;1.95;0.63;;;9.10;63.00;;;;;;5058989;28;20430;-50
2023/04/02 10:19:43;;;;;;;2.80;0.90;;;9.10;60.90;;;;;;5063067;28;20025;-52
2023/04/02 10:22:20;;;;;;;4.95;0.90;;;9.00;61.90;;;;;;5050333;28;20425;-46
2023/04/02 10:24:49;;;;;;;3.08;1.10;;;9.10;62.00;;;;;;5057626;28;20039;-48
2023/04/02 10:27:28;;;;;;;3.38;0.80;;;9.00;60.70;;;;;;5073252;28;20477;-47
2023/04/02 10:30:16;;;;;;;5.65;1.20;;;9.10;61.30;;;;;;5071546;28;20733;-48
2023/04/02 10:33:09;;;;;;;1.77;0.85;;;9.20;61.60;;;;;;5054860;28;20036;-53
2023/04/02 10:36:08;;;;;;;5.00;0.73;;;9.30;60.40;;;;;;5065499;28;20032;-47
2023/04/02 10:39:12;;;;;;;2.88;0.70;;;9.40;59.10;;;;;;5069257;28;20078;-46
2023/04/02 10:42:20;;;;;;;3.53;0.93;;;9.30;59.40;;;;;;5051818;28;20071;-50
2023/04/02 10:44:54;;;;;;;3.28;0.93;;;9.10;61.70;;;;;;5033753;28;20041;-48
2023/04/02 10:47:44;;;;;;;4.50;0.90;;;9.20;59.40;;;;;;5067502;28;20040;-51
2023/04/02 10:50:23;;;;;;;2.47;0.73;;;9.40;58.00;;;;;;5073280;28;20118;-51
2023/04/02 10:53:15;;;;;;;2.53;0.70;;;9.50;59.00;;;;;;5074811;28;20095;-48
2023/04/02 10:55:57;;;;;;;3.35;0.55;;;9.20;56.80;;;;;;5081467;28;20407;-46
2023/04/02 10:58:27;;;;;;;2.20;0.60;;;9.10;58.40;;;;;;5046022;28;20067;-47
2023/04/02 11:01:04;;;;;;;1.45;0.50;;;9.30;59.90;;;;;;5057093;28;20036;-47
2023/04/02 11:03:54;;;;;;;2.50;1.05;;;9.40;58.70;;;;;;5065095;28;20028;-47
2023/04/02 11:06:55;;;;;;;3.08;0.80;;;9.40;59.80;;;;;;5070491;28;20136;-47
2023/04/02 11:09:31;;;;;;;2.95;0.57;;;9.50;59.80;;;;;;5037499;28;20053;-50
2023/04/02 11:12:05;;;;;;;2.20;0.70;;;9.50;58.30;;;;;;5054315;28;20025;-47
2023/04/02 11:14:32;;;;;;;2.20;0.82;;;9.60;59.70;;;;;;5054843;28;20056;-47
2023/04/02 11:17:01;;;;;;;2.08;0.70;;;9.80;58.50;;;;;;5052876;28;20083;-46
2023/04/02 11:19:33;;;;;;;1.52;0.60;;;9.60;57.00;;;;;;5052896;28;20363;-48
2023/04/02 11:22:22;;;;;;;2.25;0.70;;;9.60;55.10;;;;;;5052602;28;20032;-47
2023/04/02 11:25:19;;;;;;;5.80;0.68;;;9.40;55.60;;;;;;5052513;28;20046;-49
2023/04/02 11:27:46;;;;;;;1.25;0.50;;;9.60;56.10;;;;;;5038664;28;20036;-47
2023/04/02 11:30:24;;;;;;;1.90;0.70;;;9.70;54.60;;;;;;5066396;28;20017;-47
2023/04/02 11:32:53;;;;;;;3.67;0.88;;;9.50;54.00;;;;;;5051543;28;20021;-48
2023/04/02 11:35:29;;;;;;;5.30;1.02;;;9.20;56.50;;;;;;5053748;28;20040;-46
2023/04/02 11:38:14;;;;;;;2.65;0.95;;;9.40;56.10;;;;;;5053640;28;20066;-48
2023/04/02 11:40:43;;;;;;;2.53;0.70;;;9.30;54.20;;;;;;5038441;28;20029;-47
2023/04/02 11:43:47;;;;;;;4.45;0.80;;;9.40;56.30;;;;;;5065520;28;20033;-47
2023/04/02 11:46:18;;;;;;;4.00;0.70;;;9.40;53.70;;;;;;5072832;28;20103;-47
2023/04/02 11:48:45;;;;;;;1.77;0.63;;;9.60;55.20;;;;;;5067973;28;20036;-46
2023/04/02 11:51:24;;;;;;;2.17;0.70;;;9.70;54.00;;;;;;5051676;28;20529;-46
2023/04/02 11:53:53;;;;;;;3.03;0.65;;;9.60;53.60;;;;;;5053871;28;20032;-47
2023/04/02 11:56:41;;;;;;;4.07;0.90;;;9.70;52.70;;;;;;5072157;28;20036;-47
2023/04/02 11:59:18;;;;;;;3.03;1.17;;;9.60;53.10;;;;;;5055696;28;20525;-46
2023/04/02 12:02:20;;;;;;;3.33;0.68;;;9.50;55.70;;;;;;5073166;28;20040;-49
2023/04/02 12:05:26;;;;;;;1.15;0.57;;;9.40;53.40;;;;;;5063167;28;20071;-48
2023/04/02 12:08:21;;;;;;;3.15;0.80;;;9.40;52.80;;;;;;5052113;28;20489;-49
2023/04/02 12:11:00;;;;;;;2.88;0.77;;;9.50;54.40;;;;;;5052593;28;20037;-50
2023/04/02 12:13:44;;;;;;;0.90;0.70;;;9.60;54.30;;;;;;5052765;28;20044;-47
2023/04/02 12:16:17;;;;;;;3.13;0.95;;;9.70;52.10;;;;;;5052921;28;20028;-49
2023/04/02 12:18:50;;;;;;;1.10;0.50;;;9.60;52.50;;;;;;5052112;28;20462;-47
2023/04/02 12:21:20;;;;;;;2.00;0.60;;;9.60;54.40;;;;;;5059179;28;20061;-48
2023/04/02 12:23:52;;;;;;;2.03;1.17;;;9.70;53.00;;;;;;5051598;28;20115;-49
2023/04/02 12:26:30;;;;;;;4.43;0.65;;;9.50;50.60;;;;;;5051348;28;20041;-47
2023/04/02 12:29:35;;;;;;;1.63;0.52;;;9.50;52.90;;;;;;5052522;28;20044;-48
2023/04/02 12:32:02;;;;;;;0.85;0.30;;;9.40;52.30;;;;;;5060389;28;20028;-47
2023/04/02 12:34:30;;;;;;;3.42;0.55;;;9.40;54.60;;;;;;5056281;28;20056;-51
2023/04/02 12:37:25;;;;;;;1.92;0.65;;;9.40;53.20;;;;;;5057919;28;20408;-47
2023/04/02 12:40:14;;;;;;;3.92;0.57;;;9.40;53.80;;;;;;5059161;28;20033;-48
2023/04/02 12:42:42;;;;;;;1.50;0.57;;;9.40;53.20;;;;;;5064229;28;20037;-47
2023/04/02 12:45:27;;;;;;;1.65;0.50;;;9.40;52.40;;;;;;5055280;28;20106;-49
2023/04/02 12:47:56;;;;;;;1.75;0.52;;;9.50;52.20;;;;;;5055669;28;20453;-48
2023/04/02 12:50:25;;;;;;;3.47;0.57;;;9.40;54.20;;;;;;5052636;28;20025;-47
2023/04/02 12:52:54;;;;;;;2.75;0.60;;;9.40;54.50;;;;;;5055533;28;20469;-46
2023/04/02 12:55:25;;;;;;;1.50;0.40;;;9.40;51.70;;;;;;5067381;28;20359;-47
2023/04/02 12:57:58;;;;;;;3.17;0.82;;;9.30;52.80;;;;;;5061579;28;20041;-50
2023/04/02 13:00:42;;;;;;;3.88;0.80;;;9.30;52.20;;;;;;5057467;28;20028;-47
2023/04/02 13:03:28;;;;;;;2.80;0.75;;;9.10;53.50;;;;;;5054889;28;20070;-46
2023/04/02 13:05:56;;;;;;;1.52;0.60;;;9.10;50.90;;;;;;5055034;28;20083;-48
2023/04/02 13:08:29;;;;;;;3.90;0.85;;;9.00;51.90;;;;;;5065013;28;20043;-48
2023/04/02 13:11:04;;;;;;;1.95;0.43;;;9.00;51.70;;;;;;5066320;28;20082;-47
2023/04/02 13:13:39;;;;;;;3.72;0.65;;;8.90;50.40;;;;;;5032519;28;20039;-49
2023/04/02 13:16:19;;;;;;;1.52;0.60;;;9.00;52.10;;;;;;5054431;28;20029;-49
2023/04/02 13:18:49;;;;;;;2.22;0.47;;;9.00;52.60;;;;;;5063347;28;20027;-48
2023/04/02 13:21:20;;;;;;;2.83;0.70;;;8.90;52.20;;;;;;5035001;28;20392;-47
2023/04/02 13:23:48;;;;;;;3.35;0.68;;;8.90;50.60;;;;;;5065247;28;20033;-49
2023/04/02 13:26:19;;;;;;;2.58;0.60;;;8.90;51.10;;;;;;5060001;28;20335;-47
2023/04/02 13:29:09;;;;;;;3.72;0.70;;;8.90;50.90;;;;;;5052956;28;20036;-48
2023/04/02 13:31:36;;;;;;;3.22;0.55;;;9.00;52.20;;;;;;5056055;28;20025;-47
2023/04/02 13:34:02;;;;;;;1.77;0.60;;;9.00;51.20;;;;;;5053752;28;20021;-51
2023/04/02 13:36:32;;;;;;;2.15;0.50;;;8.90;49.50;;;;;;5054201;28;20032;-52
2023/04/02 13:39:00;;;;;;;4.78;1.13;;;8.90;48.90;;;;;;5054470;28;20060;-53
2023/04/02 13:41:29;;;;;;;1.13;0.50;;;8.80;50.90;;;;;;5053726;28;20479;-48
2023/04/02 13:44:13;;;;;;;2.72;0.77;;;8.90;49.30;;;;;;5060692;28;20124;-47
2023/04/02 13:46:42;;;;;;;1.75;0.70;;;8.70;49.60;;;;;;5060456;28;20056;-47
2023/04/02 13:49:08;;;;;;;3.15;0.60;;;8.80;51.40;;;;;;5063270;28;20040;-50
2023/04/02 13:51:45;;;;;;;2.03;0.70;;;8.90;52.00;;;;;;5070559;28;20438;-51
2023/04/02 13:54:40;;;;;;;3.78;0.65;;;8.90;49.50;;;;;;5069564;28;20032;-47
2023/04/02 13:57:06;;;;;;;1.88;0.77;;;8.90;51.80;;;;;;5073058;28;20372;-46
2023/04/02 13:59:35;;;;;;;1.52;0.50;;;9.00;49.10;;;;;;5053580;28;20032;-47
2023/04/02 14:02:07;;;;;;;2.80;1.27;;;9.00;50.10;;;;;;5068176;28;20029;-48